• Join FlightAware (Why Join?)
  • Login
  • US Flag 
06:29PM EDT


 

Airport Tracker/Info


-or-


 

Live Flight TrackerFlight Track Log ✈ SKW5516 ✈ 13-Jun-2013 ✈ KFAT - KLAX

Flight Track Log - Related Links

Times and Time Zones

All times are in EDT time to prevent confusion due to time zone crossing. See the SKW5516 flight status page for this flight to view local times or setup timezone preferences in your user account.

Time Position Orientation Groundspeed Altitude Reporting Facility
EDT Latitude Longitude Course Direction KTS MPH feet Rate Location/Type
05:39PM 36.5311 -119.6012 159° South  Level Estimated
05:40PM 36.4698 -119.5720 159° South  Level Estimated
05:41PM 36.4084 -119.5428 159° South  Level Estimated
05:42PM 36.3471 -119.5136 159° South  Level Estimated
05:43PM 36.2857 -119.4845 159° South  Level Estimated
05:44PM 36.2244 -119.4555 159° South  Level Estimated
05:45PM 36.1630 -119.4265 159° South  Level Estimated
05:46PM 36.1016 -119.3975 159° South  Level Estimated
05:47PM 36.0402 -119.3686 159° South  Level Estimated
05:48PM 35.9788 -119.3397 159° South  Level Estimated
05:49PM 35.9174 -119.3109 159° South  Level Estimated
05:50PM 35.8560 -119.2821 159° South  Level Estimated
05:51PM 35.7946 -119.2533 159° South  Level Estimated
05:52PM 35.7332 -119.2246 159° South  Level Estimated
05:53PM 35.6717 -119.1960 159° South  Level Estimated
05:54PM 35.6103 -119.1674 159° South  Level Estimated
05:55PM 35.5489 -119.1388 159° South  Level Estimated
05:56PM 35.4874 -119.1103 159° South  Level Estimated
05:57PM 35.4260 -119.0818 159° South  Level Estimated
05:58PM 35.3645 -119.0534 159° South  Level Estimated
05:59PM 35.3030 -119.0250 159° South  Level Estimated
06:00PM 35.2416 -118.9966 159° South  Level Estimated
06:01PM 35.1801 -118.9683 159° South  Level Estimated
06:02PM 35.1186 -118.9401 159° South  Level Estimated
06:03PM 35.0571 -118.9118 159° South  Level Estimated
06:04PM 34.9956 -118.8837 159° South  Level Estimated
06:05PM 34.9341 -118.8555 159° South  Level Estimated
06:06PM 34.8726 -118.8274 159° South  Level Estimated
06:07PM 34.8110 -118.7994 159° South  Level Estimated
06:08PM 34.7495 -118.7714 159° South  Level Estimated
06:09PM 34.6880 -118.7434 160° South  Level Estimated
06:10PM 34.6264 -118.7155 160° South  Level Estimated
06:11PM 34.5649 -118.6876 160° South  Level Estimated
06:12PM 34.5033 -118.6598 160° South  Level Estimated
06:13PM 34.4418 -118.6320 160° South  Level Estimated
06:14PM 34.3802 -118.6042 160° South  Level Estimated
06:15PM 34.3186 -118.5765 160° South  Level Estimated
06:16PM 34.2570 -118.5488 160° South  Level Estimated
06:17PM 34.1955 -118.5212 160° South  Level Estimated
06:18PM 34.1339 -118.4936 160° South  Level Estimated
06:19PM 34.0723 -118.4660 160° South  Level Estimated
06:20PM 34.0107 -118.4385 160° South  Level Estimated
06:21PM 33.9491 -118.4110 160° South  Level Estimated
06:22PM 33.9425 -118.4081 160° South  Level Estimated
06:23PM 33.9425 -118.4081 164° South  Level Estimated
06:24PM 33.9425 -118.4081 164° South  Level Estimated